createdAt,value
2023-04-26T00:01:27.583Z,96046.25
2023-04-26T00:03:56.411Z,96037.00
2023-04-26T00:06:23.438Z,96040.41
2023-04-26T00:08:50.300Z,96041.84
2023-04-26T00:11:17.088Z,96035.09
2023-04-26T00:13:43.828Z,96039.81
2023-04-26T00:16:10.748Z,96038.06
2023-04-26T00:18:37.650Z,96039.00
2023-04-26T00:21:04.408Z,96035.53
2023-04-26T00:23:32.168Z,96030.13
2023-04-26T00:25:58.903Z,96038.09
2023-04-26T00:28:25.722Z,96036.13
2023-04-26T00:30:52.523Z,96024.19
2023-04-26T00:33:19.241Z,96031.84
2023-04-26T00:35:46.011Z,96028.00
2023-04-26T00:38:12.874Z,96028.44
2023-04-26T00:40:39.621Z,96028.72
2023-04-26T00:43:06.817Z,96023.00
2023-04-26T00:45:34.505Z,96024.25
2023-04-26T00:48:01.997Z,96032.03
2023-04-26T00:50:29.787Z,96027.06
2023-04-26T00:52:57.651Z,96030.16
2023-04-26T00:55:27.103Z,96027.56
2023-04-26T00:57:55.368Z,96022.28
2023-04-26T01:00:22.875Z,96034.22
2023-04-26T01:02:49.825Z,96023.97
2023-04-26T01:05:16.777Z,96024.09
2023-04-26T01:07:45.051Z,96022.25
2023-04-26T01:10:12.101Z,96016.50
2023-04-26T01:12:39.432Z,96013.47
2023-04-26T01:15:06.366Z,96015.41
2023-04-26T01:17:33.935Z,96008.50
2023-04-26T01:20:00.797Z,96011.38
2023-04-26T01:22:28.513Z,96009.72
2023-04-26T01:24:56.437Z,95999.94
2023-04-26T01:27:23.212Z,96005.53
2023-04-26T01:29:49.943Z,96004.22
2023-04-26T01:32:16.682Z,96002.59
2023-04-26T01:34:43.502Z,96002.44
2023-04-26T01:37:11.507Z,95991.59
2023-04-26T01:39:38.201Z,95990.75
2023-04-26T01:42:06.060Z,95987.97
2023-04-26T01:44:32.812Z,95983.59
2023-04-26T01:47:01.406Z,95974.25
2023-04-26T01:49:28.159Z,95971.41
2023-04-26T01:51:55.232Z,95966.91
2023-04-26T01:54:23.914Z,95971.63
2023-04-26T01:56:50.762Z,95966.53
2023-04-26T01:59:17.581Z,95956.75
2023-04-26T02:01:44.742Z,95961.38
2023-04-26T02:04:11.743Z,95952.47
2023-04-26T02:06:38.410Z,95948.72
2023-04-26T02:09:05.373Z,95953.56
2023-04-26T02:11:32.228Z,95949.75
2023-04-26T02:13:59.041Z,95945.97
2023-04-26T02:16:27.239Z,95945.72
2023-04-26T02:18:55.009Z,95938.25
2023-04-26T02:21:22.602Z,95950.00
2023-04-26T02:23:49.363Z,95942.91
2023-04-26T02:26:16.109Z,95944.56
2023-04-26T02:28:43.544Z,95943.31
2023-04-26T02:31:11.364Z,95945.56
2023-04-26T02:33:38.352Z,95947.69
2023-04-26T02:36:08.570Z,95948.25
2023-04-26T02:38:36.586Z,95950.13
2023-04-26T02:41:04.935Z,95946.72
2023-04-26T02:43:32.715Z,95951.44
2023-04-26T02:46:01.120Z,95948.44
2023-04-26T02:48:28.066Z,95948.44
2023-04-26T02:50:54.858Z,95950.00
2023-04-26T02:53:21.794Z,95952.53
2023-04-26T02:55:48.534Z,95948.31
2023-04-26T02:58:15.551Z,95954.63
2023-04-26T03:00:49.180Z,95953.19
2023-04-26T03:03:16.987Z,95960.31
2023-04-26T03:05:46.363Z,95971.44
2023-04-26T03:08:13.542Z,95972.22
2023-04-26T03:10:40.259Z,95977.88
2023-04-26T03:13:07.470Z,95983.09
2023-04-26T03:15:34.365Z,95987.56
2023-04-26T03:18:01.409Z,95991.38
2023-04-26T03:20:28.804Z,95994.75
2023-04-26T03:22:55.836Z,95999.34
2023-04-26T03:25:23.245Z,95994.63
2023-04-26T03:27:50.748Z,95997.13
2023-04-26T03:30:18.033Z,96003.75
2023-04-26T03:32:45.395Z,96004.59
2023-04-26T03:35:12.331Z,96004.88
2023-04-26T03:37:39.925Z,96000.66
2023-04-26T03:40:09.921Z,95994.59
2023-04-26T03:42:38.701Z,96003.34
2023-04-26T03:45:05.778Z,96007.59
2023-04-26T03:47:33.177Z,96007.22
2023-04-26T03:50:00.331Z,96015.00
2023-04-26T03:52:27.435Z,96005.84
2023-04-26T03:54:54.523Z,96003.97
2023-04-26T03:57:21.664Z,96004.38
2023-04-26T03:59:48.739Z,96008.00
2023-04-26T04:02:20.046Z,96022.03
2023-04-26T04:04:47.487Z,96025.97
2023-04-26T04:07:15.034Z,96032.50
2023-04-26T04:09:41.879Z,96031.78
2023-04-26T04:12:08.615Z,96035.34
2023-04-26T04:14:36.206Z,96030.31
2023-04-26T04:17:04.048Z,96034.25
2023-04-26T04:19:33.100Z,96034.97
2023-04-26T04:22:01.005Z,96035.41
2023-04-26T04:24:29.930Z,96039.47
2023-04-26T04:26:57.258Z,96028.28
2023-04-26T04:29:24.160Z,96028.25
2023-04-26T04:31:51.007Z,96013.22
2023-04-26T04:34:18.960Z,96023.94
2023-04-26T04:36:46.523Z,96022.66
2023-04-26T04:39:16.259Z,96015.81
2023-04-26T04:41:54.466Z,96018.94
2023-04-26T04:44:24.101Z,96017.25
2023-04-26T04:46:53.334Z,96018.06
2023-04-26T04:49:20.886Z,96025.81
2023-04-26T04:51:48.079Z,96017.84
2023-04-26T04:54:16.312Z,95966.78
2023-04-26T04:56:43.397Z,96016.09
2023-04-26T04:59:11.644Z,96023.38
2023-04-26T05:01:39.074Z,96017.66
2023-04-26T05:04:10.520Z,96024.25
2023-04-26T05:06:39.758Z,96025.97
2023-04-26T05:09:08.036Z,96027.25
2023-04-26T05:11:36.255Z,96031.97
2023-04-26T05:14:05.214Z,96027.41
2023-04-26T05:16:32.251Z,96021.38
2023-04-26T05:19:24.888Z,96014.00
2023-04-26T05:21:54.849Z,96010.41
2023-04-26T05:24:23.157Z,96010.81
2023-04-26T05:26:50.589Z,96005.66
2023-04-26T05:29:32.333Z,96010.25
2023-04-26T05:31:59.266Z,96008.19
2023-04-26T05:34:41.301Z,96001.91
2023-04-26T05:37:11.371Z,96009.41
2023-04-26T05:39:38.089Z,96008.19
2023-04-26T05:42:05.105Z,96003.56
2023-04-26T05:44:32.147Z,96012.66
2023-04-26T05:46:59.055Z,96011.25
2023-04-26T05:49:27.079Z,96020.78
2023-04-26T05:52:03.589Z,96018.88
2023-04-26T05:54:33.003Z,96022.03
2023-04-26T05:56:59.939Z,96023.03
2023-04-26T06:02:46.281Z,96019.91
2023-04-26T06:05:17.505Z,96022.34
2023-04-26T06:07:46.157Z,96020.56
2023-04-26T06:10:13.566Z,96019.78
2023-04-26T06:12:40.882Z,96021.56
2023-04-26T06:15:08.542Z,96017.16
2023-04-26T06:17:37.869Z,96021.31
2023-04-26T06:20:07.569Z,96015.91
2023-04-26T06:22:34.300Z,96025.28
2023-04-26T06:25:01.145Z,96028.25
2023-04-26T06:27:28.070Z,96027.34
2023-04-26T06:29:55.260Z,96025.31
2023-04-26T06:32:23.587Z,96023.50
2023-04-26T06:34:52.310Z,96018.56
2023-04-26T06:37:19.143Z,96020.94
2023-04-26T06:39:46.010Z,96033.75
2023-04-26T06:42:13.284Z,96024.16
2023-04-26T06:44:53.756Z,96012.59
2023-04-26T06:47:43.721Z,96017.03
2023-04-26T06:50:10.856Z,96012.63
2023-04-26T06:52:37.872Z,96020.47
2023-04-26T06:55:04.937Z,96019.50
2023-04-26T06:57:33.180Z,96015.03
2023-04-26T07:00:00.026Z,96011.16
2023-04-26T07:02:26.913Z,96023.72
2023-04-26T07:04:53.911Z,96020.41
2023-04-26T07:07:22.828Z,96017.16
2023-04-26T07:09:49.718Z,96015.94
2023-04-26T07:12:16.567Z,96008.72
2023-04-26T07:14:45.059Z,96012.34
2023-04-26T07:17:17.143Z,96006.34
2023-04-26T07:19:43.907Z,96007.47
2023-04-26T07:22:11.111Z,95999.13
2023-04-26T07:24:37.893Z,96000.63
2023-04-26T07:27:16.335Z,96001.28
2023-04-26T07:29:44.096Z,96007.19
2023-04-26T07:32:11.323Z,96004.63
2023-04-26T07:34:38.173Z,95999.03
2023-04-26T07:37:04.903Z,96001.34
2023-04-26T07:39:31.639Z,96004.59
2023-04-26T07:41:58.591Z,96011.63
2023-04-26T07:44:25.730Z,96008.50
2023-04-26T07:46:52.652Z,95998.97
2023-04-26T07:49:19.485Z,96009.56
2023-04-26T07:51:46.436Z,96007.84
2023-04-26T07:54:13.262Z,96003.63
2023-04-26T07:56:40.151Z,96004.78
2023-04-26T07:59:06.957Z,96006.19
2023-04-26T08:01:35.199Z,96008.25
2023-04-26T08:04:02.378Z,96013.59
2023-04-26T08:06:29.632Z,96003.13
2023-04-26T08:08:56.321Z,96007.22
2023-04-26T08:11:23.208Z,96010.59
2023-04-26T08:13:50.446Z,96012.69
2023-04-26T08:16:17.566Z,96008.53
2023-04-26T08:18:46.657Z,96000.06
2023-04-26T08:21:13.785Z,96001.50
2023-04-26T08:23:40.820Z,96002.41
2023-04-26T08:26:07.766Z,96002.38
2023-04-26T08:28:35.996Z,95988.97
2023-04-26T08:31:02.886Z,95956.13
2023-04-26T08:33:29.721Z,95990.81
2023-04-26T08:35:56.705Z,96011.56
2023-04-26T08:38:24.683Z,95994.66
2023-04-26T08:40:51.645Z,95995.56
2023-04-26T08:43:18.531Z,95994.19
2023-04-26T08:45:46.541Z,95993.56
2023-04-26T08:48:18.454Z,95996.00
2023-04-26T08:50:46.764Z,95997.50
2023-04-26T08:53:21.672Z,96006.50
2023-04-26T08:55:51.601Z,96005.50
2023-04-26T08:58:19.424Z,96002.06
2023-04-26T09:00:46.635Z,96003.31
2023-04-26T09:03:13.750Z,96006.69
2023-04-26T09:05:45.175Z,96007.75
2023-04-26T09:08:18.413Z,96002.78
2023-04-26T09:10:45.508Z,95999.66
2023-04-26T09:13:12.524Z,95997.75
2023-04-26T09:15:39.999Z,95992.59
2023-04-26T09:18:20.378Z,95990.59
2023-04-26T09:21:02.146Z,96000.41
2023-04-26T09:23:28.914Z,95986.91
2023-04-26T09:25:55.702Z,95992.59
2023-04-26T09:28:23.449Z,95992.38
2023-04-26T09:30:50.293Z,95997.91
2023-04-26T09:33:17.252Z,95993.94
2023-04-26T09:35:44.280Z,96004.81
2023-04-26T09:38:18.192Z,96009.91
2023-04-26T09:40:48.735Z,96011.41
2023-04-26T09:43:19.977Z,96012.34
2023-04-26T09:45:50.694Z,96007.53
2023-04-26T09:48:17.683Z,96008.47
2023-04-26T09:50:48.500Z,96009.41
2023-04-26T09:53:27.772Z,96030.50
2023-04-26T09:55:55.210Z,96022.78
2023-04-26T09:58:23.366Z,96027.34
2023-04-26T10:00:54.686Z,96030.19
2023-04-26T10:03:22.960Z,96024.00
2023-04-26T10:05:50.073Z,96030.97
2023-04-26T10:08:16.812Z,96021.53
2023-04-26T10:10:44.039Z,96030.41
2023-04-26T10:13:11.202Z,96018.50
2023-04-26T10:15:39.230Z,96026.75
2023-04-26T10:18:06.354Z,96017.31
2023-04-26T10:20:33.890Z,96022.72
2023-04-26T10:23:02.054Z,96015.63
2023-04-26T10:25:38.643Z,96009.41
2023-04-26T10:28:05.759Z,96003.63
2023-04-26T10:30:32.877Z,96010.81
2023-04-26T10:32:59.690Z,95999.34
2023-04-26T10:35:26.992Z,96001.00
2023-04-26T10:37:59.960Z,95998.38
2023-04-26T10:40:31.113Z,96001.47
2023-04-26T10:43:10.267Z,96000.22
2023-04-26T10:45:37.986Z,95984.28
2023-04-26T10:48:29.098Z,96000.31
2023-04-26T10:51:02.223Z,95991.09
2023-04-26T10:53:30.980Z,95989.66
2023-04-26T10:55:57.889Z,95993.06
2023-04-26T10:58:40.926Z,95993.19
2023-04-26T11:01:08.771Z,95994.56
2023-04-26T11:03:36.853Z,95983.59
2023-04-26T11:06:10.177Z,95988.22
2023-04-26T11:08:37.046Z,95984.63
2023-04-26T11:11:03.794Z,95999.00
2023-04-26T11:13:30.923Z,95986.44
2023-04-26T11:16:04.410Z,95981.06
2023-04-26T11:18:32.003Z,95986.47
2023-04-26T11:20:59.254Z,95986.78
2023-04-26T11:23:27.457Z,95967.88
2023-04-26T11:28:52.094Z,95978.31
2023-04-26T11:31:19.436Z,95993.88
2023-04-26T11:33:49.126Z,95986.00
2023-04-26T11:36:17.443Z,95972.28
2023-04-26T11:38:44.879Z,95975.50
2023-04-26T11:41:11.755Z,95967.94
2023-04-26T11:43:39.693Z,95965.50
2023-04-26T11:46:08.054Z,95967.44
2023-04-26T11:48:35.941Z,95971.16
2023-04-26T11:51:03.869Z,95961.09
2023-04-26T11:53:43.106Z,95956.81
2023-04-26T11:56:17.273Z,95959.75
2023-04-26T11:58:51.269Z,95957.66
2023-04-26T12:01:25.410Z,95957.94
2023-04-26T12:03:57.044Z,95958.34
2023-04-26T12:06:42.667Z,95952.97
2023-04-26T12:09:09.582Z,95966.06
2023-04-26T12:11:36.398Z,95970.03
2023-04-26T12:14:03.845Z,95964.75
2023-04-26T12:16:30.843Z,95969.97
2023-04-26T12:18:58.095Z,95976.41
2023-04-26T12:21:25.587Z,95975.91
2023-04-26T12:23:52.922Z,95971.00
2023-04-26T12:26:20.555Z,95981.00
2023-04-26T12:28:47.395Z,95978.97
2023-04-26T12:31:14.097Z,95972.72
2023-04-26T12:33:40.961Z,95977.69
2023-04-26T12:36:11.929Z,95978.91
2023-04-26T12:38:39.596Z,95976.38
2023-04-26T12:41:06.428Z,95982.22
2023-04-26T12:43:33.257Z,95978.28
2023-04-26T12:46:00.603Z,95979.75
2023-04-26T12:48:28.273Z,95987.06
2023-04-26T12:50:55.127Z,95987.88
2023-04-26T12:53:21.892Z,95985.56
2023-04-26T12:55:48.684Z,95984.25
2023-04-26T12:58:15.617Z,95985.56
2023-04-26T13:00:44.512Z,95978.31
2023-04-26T13:03:14.644Z,95977.00
2023-04-26T13:05:41.985Z,95981.44
2023-04-26T13:08:09.235Z,95985.78
2023-04-26T13:10:35.972Z,95984.72
2023-04-26T13:13:02.819Z,95977.25
2023-04-26T13:15:30.071Z,95982.88
2023-04-26T13:17:57.034Z,95983.38
2023-04-26T13:20:25.889Z,95983.22
2023-04-26T13:22:53.611Z,95990.81
2023-04-26T13:25:20.451Z,95984.72
2023-04-26T13:27:47.275Z,95987.09
2023-04-26T13:30:14.136Z,95984.22
2023-04-26T13:32:41.283Z,95981.19
2023-04-26T13:35:08.330Z,95981.06
2023-04-26T13:37:35.070Z,95987.75
2023-04-26T13:40:01.836Z,95980.63
2023-04-26T13:42:28.735Z,95990.31
2023-04-26T13:44:55.711Z,95984.03
2023-04-26T13:47:22.534Z,95983.31
2023-04-26T13:49:49.466Z,95982.66
2023-04-26T13:52:16.304Z,95983.47
2023-04-26T13:54:43.160Z,95987.91
2023-04-26T13:57:09.918Z,95987.75
2023-04-26T13:59:36.774Z,95987.13
2023-04-26T14:02:03.853Z,95990.59
2023-04-26T14:04:30.846Z,95988.94
2023-04-26T14:06:58.277Z,95993.25
2023-04-26T14:09:26.592Z,95995.28
2023-04-26T14:12:06.510Z,95999.56
2023-04-26T14:14:34.639Z,96003.03
2023-04-26T14:17:01.716Z,96011.81
2023-04-26T14:19:28.512Z,96014.28
2023-04-26T14:21:55.433Z,96019.56
2023-04-26T14:24:22.135Z,96023.94
2023-04-26T14:26:48.873Z,96024.50
2023-04-26T14:29:15.613Z,96025.09
2023-04-26T14:31:42.396Z,96022.72
2023-04-26T14:34:09.135Z,96024.50
2023-04-26T14:36:37.580Z,96023.34
2023-04-26T14:39:04.429Z,96031.03
2023-04-26T14:41:31.358Z,96028.16
2023-04-26T14:43:58.254Z,96026.00
2023-04-26T14:46:25.031Z,96021.97
2023-04-26T14:48:51.868Z,96034.84
2023-04-26T14:51:18.664Z,96024.00
2023-04-26T14:53:47.604Z,96026.47
2023-04-26T14:56:17.544Z,96035.56
2023-04-26T14:58:44.359Z,96030.84
2023-04-26T15:01:12.136Z,96028.38
2023-04-26T15:03:39.064Z,96027.75
2023-04-26T15:06:07.905Z,96033.81
2023-04-26T15:08:34.669Z,96032.16
2023-04-26T15:11:01.399Z,96028.03
2023-04-26T15:13:28.174Z,96031.19
2023-04-26T15:15:54.842Z,96036.81
2023-04-26T15:18:21.674Z,96031.84
2023-04-26T15:20:51.320Z,96036.81
2023-04-26T15:23:19.407Z,96037.69
2023-04-26T15:25:47.348Z,96039.09
2023-04-26T15:28:14.940Z,96037.19
2023-04-26T15:30:43.700Z,96013.63
2023-04-26T15:33:12.856Z,96036.44
2023-04-26T15:35:39.837Z,96031.22
2023-04-26T15:38:07.024Z,96038.16
2023-04-26T15:40:34.839Z,96031.59
2023-04-26T15:43:03.157Z,96037.06
2023-04-26T15:45:29.912Z,96039.41
2023-04-26T15:47:57.437Z,96037.47
2023-04-26T15:50:24.206Z,96041.84
2023-04-26T15:52:51.999Z,96041.34
2023-04-26T15:55:20.039Z,96041.47
2023-04-26T15:57:46.909Z,96045.41
2023-04-26T16:00:14.344Z,96050.75
2023-04-26T16:02:42.540Z,96043.75
2023-04-26T16:05:09.526Z,96048.22
2023-04-26T16:07:38.853Z,96044.00
2023-04-26T16:10:12.222Z,96048.44
2023-04-26T16:12:43.423Z,96049.84
2023-04-26T16:15:10.716Z,96024.56
2023-04-26T16:17:38.180Z,96060.44
2023-04-26T16:20:07.329Z,96071.03
2023-04-26T16:22:34.708Z,96070.34
2023-04-26T16:25:01.731Z,96066.75
2023-04-26T16:27:29.913Z,96072.56
2023-04-26T16:29:57.095Z,96075.41
2023-04-26T16:32:26.393Z,96038.59
2023-04-26T16:34:53.480Z,96078.53
2023-04-26T16:37:20.293Z,96079.81
2023-04-26T16:39:47.119Z,96075.56
2023-04-26T16:42:13.867Z,96089.94
2023-04-26T16:44:40.915Z,96088.50
2023-04-26T16:47:07.678Z,96090.19
2023-04-26T16:49:34.596Z,96097.88
2023-04-26T16:52:01.881Z,96094.34
2023-04-26T16:54:28.728Z,96091.25
2023-04-26T16:56:56.183Z,96106.34
2023-04-26T16:59:23.293Z,96106.09
2023-04-26T17:01:50.773Z,96108.81
2023-04-26T17:04:17.877Z,96109.53
2023-04-26T17:06:45.100Z,96118.91
2023-04-26T17:09:12.743Z,96123.75
2023-04-26T17:11:43.521Z,96118.94
2023-04-26T17:14:10.725Z,96124.97
2023-04-26T17:16:37.683Z,96126.50
2023-04-26T17:19:04.567Z,96136.09
2023-04-26T17:21:31.914Z,96133.97
2023-04-26T17:23:58.684Z,96140.94
2023-04-26T17:26:25.574Z,96142.25
2023-04-26T17:28:53.999Z,96142.50
2023-04-26T17:31:20.777Z,96141.09
2023-04-26T17:33:47.681Z,96148.66
2023-04-26T17:36:14.428Z,96137.19
2023-04-26T17:38:41.676Z,96143.31
2023-04-26T17:41:08.497Z,96147.25
2023-04-26T17:43:35.243Z,96144.72
2023-04-26T17:46:02.032Z,96151.03
2023-04-26T17:50:40.103Z,96157.06
2023-04-26T17:53:07.198Z,96168.31
2023-04-26T17:55:34.071Z,96168.09
2023-04-26T17:58:00.974Z,96177.06
2023-04-26T18:00:27.769Z,96187.97
2023-04-26T18:02:56.297Z,96180.63
2023-04-26T18:05:24.603Z,96189.38
2023-04-26T18:07:51.867Z,96187.97
2023-04-26T18:10:18.722Z,96179.44
2023-04-26T18:12:45.491Z,96181.47
2023-04-26T18:15:13.717Z,96194.97
2023-04-26T18:17:41.270Z,96205.94
2023-04-26T18:20:09.374Z,96187.44
2023-04-26T18:22:36.598Z,96190.31
2023-04-26T18:25:04.000Z,96202.25
2023-04-26T18:27:31.472Z,96203.22
2023-04-26T18:29:58.617Z,96193.84
2023-04-26T18:32:25.961Z,96190.19
2023-04-26T18:34:56.326Z,96206.94
2023-04-26T18:37:23.666Z,96214.31
2023-04-26T18:39:53.718Z,96224.16
2023-04-26T18:42:20.777Z,96219.06
2023-04-26T18:44:47.751Z,96216.03
2023-04-26T18:47:14.708Z,96211.88
2023-04-26T18:49:41.809Z,96229.31
2023-04-26T18:52:09.920Z,96226.28
2023-04-26T18:54:38.693Z,96232.31
2023-04-26T18:57:05.731Z,96232.72
2023-04-26T18:59:32.678Z,96231.56
2023-04-26T19:01:59.704Z,96219.78
2023-04-26T19:04:27.230Z,96245.06
2023-04-26T19:06:54.336Z,96248.09
2023-04-26T19:09:21.856Z,96240.81
2023-04-26T19:11:49.112Z,96234.81
2023-04-26T19:14:16.017Z,96255.50
2023-04-26T19:16:43.963Z,96244.34
2023-04-26T19:19:11.458Z,96260.75
2023-04-26T19:21:38.597Z,96262.13
2023-04-26T19:24:07.052Z,96271.47
2023-04-26T19:26:34.560Z,96278.25
2023-04-26T19:29:04.080Z,96268.47
2023-04-26T19:31:32.766Z,96274.50
2023-04-26T19:33:59.667Z,96276.81
2023-04-26T19:36:27.527Z,96275.59
2023-04-26T19:38:54.563Z,96273.44
2023-04-26T19:41:21.586Z,96263.50
2023-04-26T19:43:48.577Z,96274.06
2023-04-26T19:46:15.778Z,96274.50
2023-04-26T19:48:42.900Z,96273.56
2023-04-26T19:51:15.834Z,96266.09
2023-04-26T19:53:42.925Z,96281.91
2023-04-26T19:56:13.192Z,96288.88
2023-04-26T19:58:40.107Z,96287.84
2023-04-26T20:01:07.158Z,96276.91
2023-04-26T20:03:34.358Z,96270.47
2023-04-26T20:06:01.442Z,96282.19
2023-04-26T20:08:29.248Z,96257.03
2023-04-26T20:11:02.100Z,96270.34
2023-04-26T20:13:28.973Z,96272.03
2023-04-26T20:15:55.866Z,96265.78
2023-04-26T20:18:22.836Z,96276.78
2023-04-26T20:20:51.811Z,96262.53
2023-04-26T20:23:18.743Z,96287.63
2023-04-26T20:25:45.954Z,96285.09
2023-04-26T20:28:12.861Z,96259.50
2023-04-26T20:30:39.773Z,96288.38
2023-04-26T20:33:06.757Z,96281.75
2023-04-26T20:35:33.824Z,96275.50
2023-04-26T20:38:00.822Z,96254.72
2023-04-26T20:40:27.796Z,96280.59
2023-04-26T20:42:54.694Z,96275.69
2023-04-26T20:45:21.578Z,96272.41
2023-04-26T20:47:48.527Z,96272.94
2023-04-26T20:50:15.353Z,96241.41
2023-04-26T20:52:42.475Z,96272.09
2023-04-26T20:55:09.758Z,96267.03
2023-04-26T20:57:37.715Z,96262.22
2023-04-26T21:00:10.523Z,96275.13
2023-04-26T21:02:38.478Z,96275.84
2023-04-26T21:05:06.345Z,96272.09
2023-04-26T21:07:33.674Z,96271.78
2023-04-26T21:10:00.547Z,96272.81
2023-04-26T21:12:27.585Z,96285.28
2023-04-26T21:14:54.462Z,96263.41
2023-04-26T21:17:22.380Z,96289.22
2023-04-26T21:19:49.251Z,96292.75
2023-04-26T21:22:16.288Z,96264.03
2023-04-26T21:24:43.127Z,96300.06
2023-04-26T21:27:10.115Z,96296.31
2023-04-26T21:29:36.949Z,96276.66
2023-04-26T21:32:03.893Z,96302.91
2023-04-26T21:34:30.924Z,96312.97
2023-04-26T21:36:57.853Z,96315.22
2023-04-26T21:39:25.440Z,96307.56
2023-04-26T21:41:52.623Z,96317.97
2023-04-26T21:44:19.480Z,96326.16
2023-04-26T21:46:46.498Z,96316.34
2023-04-26T21:49:13.473Z,96316.28
2023-04-26T21:51:40.444Z,96305.19
2023-04-26T21:54:07.387Z,96329.19
2023-04-26T21:56:34.234Z,96330.09
2023-04-26T21:59:02.539Z,96334.63
2023-04-26T22:01:29.550Z,96335.28
2023-04-26T22:03:56.633Z,96338.72
2023-04-26T22:06:23.562Z,96346.13
2023-04-26T22:08:50.618Z,96345.13
2023-04-26T22:11:17.481Z,96350.28
2023-04-26T22:13:44.368Z,96343.44
2023-04-26T22:16:11.328Z,96349.91
2023-04-26T22:18:38.271Z,96347.81
2023-04-26T22:21:05.184Z,96356.03
2023-04-26T22:23:32.129Z,96365.75
2023-04-26T22:26:00.618Z,96374.25
2023-04-26T22:28:27.551Z,96376.00
2023-04-26T22:30:54.399Z,96376.28
2023-04-26T22:33:21.538Z,96377.66
2023-04-26T22:35:48.402Z,96393.03
2023-04-26T22:38:15.349Z,96403.44
2023-04-26T22:40:42.344Z,96409.06
2023-04-26T22:43:09.192Z,96399.81
2023-04-26T22:45:36.582Z,96407.06
2023-04-26T22:48:03.613Z,96417.44
2023-04-26T22:50:30.552Z,96425.38
2023-04-26T22:52:57.414Z,96419.53
2023-04-26T22:55:24.357Z,96445.03
2023-04-26T22:57:51.450Z,96451.47
2023-04-26T23:00:18.685Z,96450.09
2023-04-26T23:02:45.714Z,96455.59
2023-04-26T23:05:12.754Z,96459.31
2023-04-26T23:07:40.112Z,96468.75
2023-04-26T23:10:08.117Z,96469.47
2023-04-26T23:12:38.900Z,96472.44
2023-04-26T23:15:06.391Z,96485.69
2023-04-26T23:17:34.574Z,96483.88
2023-04-26T23:20:01.835Z,96480.19
2023-04-26T23:22:30.416Z,96479.56
2023-04-26T23:24:57.237Z,96486.91
2023-04-26T23:27:24.929Z,96484.03
2023-04-26T23:29:51.865Z,96485.00
2023-04-26T23:32:18.802Z,96484.84
2023-04-26T23:34:45.647Z,96475.19
2023-04-26T23:37:12.454Z,96486.91
2023-04-26T23:39:39.326Z,96488.09
2023-04-26T23:42:06.695Z,96488.50
2023-04-26T23:44:33.934Z,96491.19
2023-04-26T23:47:00.913Z,96494.25
2023-04-26T23:49:27.977Z,96498.28
2023-04-26T23:51:54.953Z,96493.00
2023-04-26T23:54:21.930Z,96489.94
2023-04-26T23:56:48.790Z,96485.09
2023-04-26T23:59:16.633Z,96502.47
